sensor_id;sensor_type;location;lat;lon;timestamp;temperature;humidity
3713;DHT22;1872;51.406;6.856;2024-03-02T00:00:05;8.20;99.90
3713;DHT22;1872;51.406;6.856;2024-03-02T00:02:47;8.20;99.90
3713;DHT22;1872;51.406;6.856;2024-03-02T00:05:18;8.20;99.90
3713;DHT22;1872;51.406;6.856;2024-03-02T00:07:46;8.30;99.90
3713;DHT22;1872;51.406;6.856;2024-03-02T00:10:16;8.30;99.90
3713;DHT22;1872;51.406;6.856;2024-03-02T00:12:47;8.40;99.90
3713;DHT22;1872;51.406;6.856;2024-03-02T00:18:12;8.50;99.90
3713;DHT22;1872;51.406;6.856;2024-03-02T00:20:40;8.50;99.90
3713;DHT22;1872;51.406;6.856;2024-03-02T00:23:08;8.50;99.90
3713;DHT22;1872;51.406;6.856;2024-03-02T00:25:42;8.50;99.90
3713;DHT22;1872;51.406;6.856;2024-03-02T00:28:33;8.50;99.90
3713;DHT22;1872;51.406;6.856;2024-03-02T00:31:12;8.50;99.90
3713;DHT22;1872;51.406;6.856;2024-03-02T00:33:49;8.50;99.90
3713;DHT22;1872;51.406;6.856;2024-03-02T00:36:21;8.60;99.90
3713;DHT22;1872;51.406;6.856;2024-03-02T00:41:32;8.60;99.90
3713;DHT22;1872;51.406;6.856;2024-03-02T00:49:48;8.70;99.90
3713;DHT22;1872;51.406;6.856;2024-03-02T00:52:14;8.80;99.90
3713;DHT22;1872;51.406;6.856;2024-03-02T00:54:40;8.80;99.90
3713;DHT22;1872;51.406;6.856;2024-03-02T00:57:06;8.80;99.90
3713;DHT22;1872;51.406;6.856;2024-03-02T00:59:35;8.80;99.90
3713;DHT22;1872;51.406;6.856;2024-03-02T01:02:00;8.90;99.90
3713;DHT22;1872;51.406;6.856;2024-03-02T01:04:27;8.90;99.90
3713;DHT22;1872;51.406;6.856;2024-03-02T01:06:52;8.90;99.90
3713;DHT22;1872;51.406;6.856;2024-03-02T01:09:18;9.00;99.90
3713;DHT22;1872;51.406;6.856;2024-03-02T01:11:44;9.00;99.90
3713;DHT22;1872;51.406;6.856;2024-03-02T01:14:10;9.00;99.90
3713;DHT22;1872;51.406;6.856;2024-03-02T01:16:36;9.00;99.90
3713;DHT22;1872;51.406;6.856;2024-03-02T01:19:02;9.00;99.90
3713;DHT22;1872;51.406;6.856;2024-03-02T01:21:28;9.00;99.90
3713;DHT22;1872;51.406;6.856;2024-03-02T01:23:54;9.10;99.90
3713;DHT22;1872;51.406;6.856;2024-03-02T01:26:19;9.10;99.90
3713;DHT22;1872;51.406;6.856;2024-03-02T01:28:46;9.00;99.90
3713;DHT22;1872;51.406;6.856;2024-03-02T01:31:11;9.10;99.90
3713;DHT22;1872;51.406;6.856;2024-03-02T01:33:38;9.00;99.90
3713;DHT22;1872;51.406;6.856;2024-03-02T01:36:04;9.00;99.90
3713;DHT22;1872;51.406;6.856;2024-03-02T01:38:30;9.00;99.90
3713;DHT22;1872;51.406;6.856;2024-03-02T01:40:56;9.00;99.90
3713;DHT22;1872;51.406;6.856;2024-03-02T01:43:23;9.00;99.90
3713;DHT22;1872;51.406;6.856;2024-03-02T01:45:49;9.00;99.90
3713;DHT22;1872;51.406;6.856;2024-03-02T01:48:15;8.90;99.90
3713;DHT22;1872;51.406;6.856;2024-03-02T01:50:41;8.90;99.90
3713;DHT22;1872;51.406;6.856;2024-03-02T01:53:08;8.90;99.90
3713;DHT22;1872;51.406;6.856;2024-03-02T01:55:34;8.90;99.90
3713;DHT22;1872;51.406;6.856;2024-03-02T01:58:00;8.80;99.90
3713;DHT22;1872;51.406;6.856;2024-03-02T02:00:26;8.80;99.90
3713;DHT22;1872;51.406;6.856;2024-03-02T02:02:53;8.80;99.90
3713;DHT22;1872;51.406;6.856;2024-03-02T02:05:19;8.80;99.90
3713;DHT22;1872;51.406;6.856;2024-03-02T02:07:44;8.80;99.90
3713;DHT22;1872;51.406;6.856;2024-03-02T02:10:11;8.80;99.90
3713;DHT22;1872;51.406;6.856;2024-03-02T02:12:37;8.80;99.90
3713;DHT22;1872;51.406;6.856;2024-03-02T02:15:04;8.80;99.90
3713;DHT22;1872;51.406;6.856;2024-03-02T02:17:31;8.90;99.90
3713;DHT22;1872;51.406;6.856;2024-03-02T02:19:56;8.90;99.90
3713;DHT22;1872;51.406;6.856;2024-03-02T02:22:22;8.90;99.90
3713;DHT22;1872;51.406;6.856;2024-03-02T02:24:48;8.90;99.90
3713;DHT22;1872;51.406;6.856;2024-03-02T02:27:13;9.00;99.90
3713;DHT22;1872;51.406;6.856;2024-03-02T02:29:41;9.00;99.90
3713;DHT22;1872;51.406;6.856;2024-03-02T02:32:07;9.00;99.90
3713;DHT22;1872;51.406;6.856;2024-03-02T02:34:33;9.00;99.90
3713;DHT22;1872;51.406;6.856;2024-03-02T02:36:59;9.00;99.90
3713;DHT22;1872;51.406;6.856;2024-03-02T02:39:26;9.00;99.90
3713;DHT22;1872;51.406;6.856;2024-03-02T02:41:52;9.00;99.90
3713;DHT22;1872;51.406;6.856;2024-03-02T02:44:18;9.00;99.90
3713;DHT22;1872;51.406;6.856;2024-03-02T02:46:44;9.00;99.90
3713;DHT22;1872;51.406;6.856;2024-03-02T02:49:09;9.00;99.90
3713;DHT22;1872;51.406;6.856;2024-03-02T02:51:35;9.10;99.90
3713;DHT22;1872;51.406;6.856;2024-03-02T02:54:02;9.10;99.90
3713;DHT22;1872;51.406;6.856;2024-03-02T02:56:28;9.10;99.90
3713;DHT22;1872;51.406;6.856;2024-03-02T02:58:53;9.10;99.90
3713;DHT22;1872;51.406;6.856;2024-03-02T03:01:19;9.10;99.90
3713;DHT22;1872;51.406;6.856;2024-03-02T03:03:45;9.10;99.90
3713;DHT22;1872;51.406;6.856;2024-03-02T03:06:11;9.10;99.90
3713;DHT22;1872;51.406;6.856;2024-03-02T03:08:38;9.10;99.90
3713;DHT22;1872;51.406;6.856;2024-03-02T03:11:04;9.10;99.90
3713;DHT22;1872;51.406;6.856;2024-03-02T03:13:31;9.10;99.90
3713;DHT22;1872;51.406;6.856;2024-03-02T03:15:57;9.10;99.90
3713;DHT22;1872;51.406;6.856;2024-03-02T03:18:23;9.10;99.90
3713;DHT22;1872;51.406;6.856;2024-03-02T03:20:51;9.10;99.90
3713;DHT22;1872;51.406;6.856;2024-03-02T03:23:17;9.10;99.90
3713;DHT22;1872;51.406;6.856;2024-03-02T03:25:43;9.10;99.90
3713;DHT22;1872;51.406;6.856;2024-03-02T03:28:09;9.10;99.90
3713;DHT22;1872;51.406;6.856;2024-03-02T03:30:38;9.10;99.90
3713;DHT22;1872;51.406;6.856;2024-03-02T03:33:05;9.10;99.90
3713;DHT22;1872;51.406;6.856;2024-03-02T03:35:32;9.10;99.90
3713;DHT22;1872;51.406;6.856;2024-03-02T03:37:58;9.10;99.90
3713;DHT22;1872;51.406;6.856;2024-03-02T03:40:24;9.10;99.90
3713;DHT22;1872;51.406;6.856;2024-03-02T03:42:49;9.10;99.90
3713;DHT22;1872;51.406;6.856;2024-03-02T03:45:16;9.10;99.90
3713;DHT22;1872;51.406;6.856;2024-03-02T03:47:42;9.20;99.90
3713;DHT22;1872;51.406;6.856;2024-03-02T03:50:08;9.20;99.90
3713;DHT22;1872;51.406;6.856;2024-03-02T03:52:34;9.20;99.90
3713;DHT22;1872;51.406;6.856;2024-03-02T03:55:00;9.20;99.90
3713;DHT22;1872;51.406;6.856;2024-03-02T03:57:26;9.20;99.90
3713;DHT22;1872;51.406;6.856;2024-03-02T03:59:52;9.10;99.90
3713;DHT22;1872;51.406;6.856;2024-03-02T04:02:18;9.10;99.90
3713;DHT22;1872;51.406;6.856;2024-03-02T04:04:44;9.10;99.90
3713;DHT22;1872;51.406;6.856;2024-03-02T04:07:10;9.10;99.90
3713;DHT22;1872;51.406;6.856;2024-03-02T04:09:35;9.00;99.90
3713;DHT22;1872;51.406;6.856;2024-03-02T04:12:02;9.00;99.90
3713;DHT22;1872;51.406;6.856;2024-03-02T04:14:28;8.90;99.90
3713;DHT22;1872;51.406;6.856;2024-03-02T04:16:54;8.90;99.90
3713;DHT22;1872;51.406;6.856;2024-03-02T04:19:19;8.80;99.90
3713;DHT22;1872;51.406;6.856;2024-03-02T04:24:45;8.70;99.90
3713;DHT22;1872;51.406;6.856;2024-03-02T04:27:11;8.60;99.90
3713;DHT22;1872;51.406;6.856;2024-03-02T04:33:01;8.60;99.90
3713;DHT22;1872;51.406;6.856;2024-03-02T04:35:27;8.60;99.90
3713;DHT22;1872;51.406;6.856;2024-03-02T04:37:54;8.60;99.90
3713;DHT22;1872;51.406;6.856;2024-03-02T04:40:20;8.60;99.90
3713;DHT22;1872;51.406;6.856;2024-03-02T04:42:45;8.60;99.90
3713;DHT22;1872;51.406;6.856;2024-03-02T04:45:11;8.50;99.90
3713;DHT22;1872;51.406;6.856;2024-03-02T04:47:37;8.50;99.90
3713;DHT22;1872;51.406;6.856;2024-03-02T04:50:03;8.50;99.90
3713;DHT22;1872;51.406;6.856;2024-03-02T04:52:29;8.40;99.90
3713;DHT22;1872;51.406;6.856;2024-03-02T04:54:54;8.30;99.90
3713;DHT22;1872;51.406;6.856;2024-03-02T04:57:43;8.30;99.90
3713;DHT22;1872;51.406;6.856;2024-03-02T05:00:09;8.20;99.90
3713;DHT22;1872;51.406;6.856;2024-03-02T05:02:35;8.20;99.90
3713;DHT22;1872;51.406;6.856;2024-03-02T05:05:01;8.20;99.90
3713;DHT22;1872;51.406;6.856;2024-03-02T05:07:28;8.30;99.90
3713;DHT22;1872;51.406;6.856;2024-03-02T05:09:54;8.30;99.90
3713;DHT22;1872;51.406;6.856;2024-03-02T05:12:19;8.30;99.90
3713;DHT22;1872;51.406;6.856;2024-03-02T05:15:04;8.20;99.90
3713;DHT22;1872;51.406;6.856;2024-03-02T05:17:29;8.20;99.90
3713;DHT22;1872;51.406;6.856;2024-03-02T05:19:55;8.10;99.90
3713;DHT22;1872;51.406;6.856;2024-03-02T05:22:21;8.10;99.90
3713;DHT22;1872;51.406;6.856;2024-03-02T05:24:47;8.10;99.90
3713;DHT22;1872;51.406;6.856;2024-03-02T05:27:12;8.10;99.90
3713;DHT22;1872;51.406;6.856;2024-03-02T05:29:38;8.10;99.90
3713;DHT22;1872;51.406;6.856;2024-03-02T05:32:04;8.00;99.90
3713;DHT22;1872;51.406;6.856;2024-03-02T05:34:29;8.00;99.90
3713;DHT22;1872;51.406;6.856;2024-03-02T05:36:56;8.00;99.90
3713;DHT22;1872;51.406;6.856;2024-03-02T05:39:23;7.90;99.90
3713;DHT22;1872;51.406;6.856;2024-03-02T05:41:49;7.90;99.90
3713;DHT22;1872;51.406;6.856;2024-03-02T05:44:15;7.80;99.90
3713;DHT22;1872;51.406;6.856;2024-03-02T05:46:41;7.80;99.90
3713;DHT22;1872;51.406;6.856;2024-03-02T05:49:07;7.80;99.90
3713;DHT22;1872;51.406;6.856;2024-03-02T05:51:33;7.70;99.90
3713;DHT22;1872;51.406;6.856;2024-03-02T05:53:59;7.70;99.90
3713;DHT22;1872;51.406;6.856;2024-03-02T05:56:24;7.70;99.90
3713;DHT22;1872;51.406;6.856;2024-03-02T05:58:50;7.70;99.90
3713;DHT22;1872;51.406;6.856;2024-03-02T06:01:35;7.70;99.90
3713;DHT22;1872;51.406;6.856;2024-03-02T06:04:00;7.60;99.90
3713;DHT22;1872;51.406;6.856;2024-03-02T06:06:26;7.60;99.90
3713;DHT22;1872;51.406;6.856;2024-03-02T06:08:52;7.50;99.90
3713;DHT22;1872;51.406;6.856;2024-03-02T06:11:19;7.50;99.90
3713;DHT22;1872;51.406;6.856;2024-03-02T06:13:45;7.50;99.90
3713;DHT22;1872;51.406;6.856;2024-03-02T06:16:11;7.50;99.90
3713;DHT22;1872;51.406;6.856;2024-03-02T06:24:55;7.40;99.90
3713;DHT22;1872;51.406;6.856;2024-03-02T06:27:21;7.40;99.90
3713;DHT22;1872;51.406;6.856;2024-03-02T06:29:47;7.40;99.90
3713;DHT22;1872;51.406;6.856;2024-03-02T06:32:14;7.40;99.90
3713;DHT22;1872;51.406;6.856;2024-03-02T06:34:40;7.40;99.90
3713;DHT22;1872;51.406;6.856;2024-03-02T06:37:05;7.40;99.90
3713;DHT22;1872;51.406;6.856;2024-03-02T06:39:31;7.40;99.90
3713;DHT22;1872;51.406;6.856;2024-03-02T06:41:59;7.40;99.90
3713;DHT22;1872;51.406;6.856;2024-03-02T06:44:25;7.40;99.90
3713;DHT22;1872;51.406;6.856;2024-03-02T06:46:50;7.50;99.90
3713;DHT22;1872;51.406;6.856;2024-03-02T06:49:16;7.50;99.90
3713;DHT22;1872;51.406;6.856;2024-03-02T06:51:44;7.50;99.90
3713;DHT22;1872;51.406;6.856;2024-03-02T06:54:09;7.50;99.90
3713;DHT22;1872;51.406;6.856;2024-03-02T06:56:35;7.40;99.90
3713;DHT22;1872;51.406;6.856;2024-03-02T06:59:01;7.50;99.90
3713;DHT22;1872;51.406;6.856;2024-03-02T07:01:27;7.50;99.90
3713;DHT22;1872;51.406;6.856;2024-03-02T07:03:53;7.60;99.90
3713;DHT22;1872;51.406;6.856;2024-03-02T07:06:19;7.60;99.90
3713;DHT22;1872;51.406;6.856;2024-03-02T07:08:45;7.70;99.90
3713;DHT22;1872;51.406;6.856;2024-03-02T07:11:10;7.80;99.90
3713;DHT22;1872;51.406;6.856;2024-03-02T07:13:37;7.90;99.90
3713;DHT22;1872;51.406;6.856;2024-03-02T07:16:03;8.00;99.90
3713;DHT22;1872;51.406;6.856;2024-03-02T07:18:32;8.10;99.90
3713;DHT22;1872;51.406;6.856;2024-03-02T07:21:07;8.20;99.90
3713;DHT22;1872;51.406;6.856;2024-03-02T07:23:32;8.20;99.90
3713;DHT22;1872;51.406;6.856;2024-03-02T07:25:58;8.30;99.90
3713;DHT22;1872;51.406;6.856;2024-03-02T07:28:28;8.30;99.90
3713;DHT22;1872;51.406;6.856;2024-03-02T07:31:04;8.30;99.90
3713;DHT22;1872;51.406;6.856;2024-03-02T07:33:33;8.40;99.90
3713;DHT22;1872;51.406;6.856;2024-03-02T07:35:59;8.40;99.90
3713;DHT22;1872;51.406;6.856;2024-03-02T07:38:26;8.40;99.90
3713;DHT22;1872;51.406;6.856;2024-03-02T07:40:53;8.40;99.90
3713;DHT22;1872;51.406;6.856;2024-03-02T07:43:19;8.50;99.90
3713;DHT22;1872;51.406;6.856;2024-03-02T07:45:45;8.60;99.90
3713;DHT22;1872;51.406;6.856;2024-03-02T07:48:11;8.70;99.90
3713;DHT22;1872;51.406;6.856;2024-03-02T07:50:37;8.80;99.90
3713;DHT22;1872;51.406;6.856;2024-03-02T07:53:04;8.90;99.90
3713;DHT22;1872;51.406;6.856;2024-03-02T07:55:31;9.00;99.90
3713;DHT22;1872;51.406;6.856;2024-03-02T07:57:57;9.20;99.90
3713;DHT22;1872;51.406;6.856;2024-03-02T08:00:23;9.30;99.90
3713;DHT22;1872;51.406;6.856;2024-03-02T08:02:50;9.40;99.90
3713;DHT22;1872;51.406;6.856;2024-03-02T08:05:16;9.50;99.90
3713;DHT22;1872;51.406;6.856;2024-03-02T08:07:45;9.70;99.90
3713;DHT22;1872;51.406;6.856;2024-03-02T08:10:11;9.90;99.90
3713;DHT22;1872;51.406;6.856;2024-03-02T08:12:37;10.00;99.90
3713;DHT22;1872;51.406;6.856;2024-03-02T08:15:03;10.10;99.90
3713;DHT22;1872;51.406;6.856;2024-03-02T08:17:30;10.20;99.90
3713;DHT22;1872;51.406;6.856;2024-03-02T08:19:56;10.30;99.90
3713;DHT22;1872;51.406;6.856;2024-03-02T08:22:22;10.40;99.90
3713;DHT22;1872;51.406;6.856;2024-03-02T08:24:48;10.50;99.90
3713;DHT22;1872;51.406;6.856;2024-03-02T08:27:14;10.50;99.90
3713;DHT22;1872;51.406;6.856;2024-03-02T08:29:40;10.50;99.90
3713;DHT22;1872;51.406;6.856;2024-03-02T08:32:07;10.60;99.90
3713;DHT22;1872;51.406;6.856;2024-03-02T08:34:32;10.60;99.90
3713;DHT22;1872;51.406;6.856;2024-03-02T08:37:01;10.70;99.90
3713;DHT22;1872;51.406;6.856;2024-03-02T08:39:27;10.80;99.90
3713;DHT22;1872;51.406;6.856;2024-03-02T08:41:53;10.90;99.90
3713;DHT22;1872;51.406;6.856;2024-03-02T08:44:19;11.00;99.90
3713;DHT22;1872;51.406;6.856;2024-03-02T08:46:45;11.00;99.90
3713;DHT22;1872;51.406;6.856;2024-03-02T08:49:11;10.90;99.90
3713;DHT22;1872;51.406;6.856;2024-03-02T08:51:37;11.00;99.90
3713;DHT22;1872;51.406;6.856;2024-03-02T08:54:03;11.00;99.90
3713;DHT22;1872;51.406;6.856;2024-03-02T08:56:30;11.10;99.90
3713;DHT22;1872;51.406;6.856;2024-03-02T08:58:56;11.20;99.90
3713;DHT22;1872;51.406;6.856;2024-03-02T09:01:22;11.30;99.90
3713;DHT22;1872;51.406;6.856;2024-03-02T09:03:48;11.30;99.90
3713;DHT22;1872;51.406;6.856;2024-03-02T09:06:15;11.40;99.90
3713;DHT22;1872;51.406;6.856;2024-03-02T09:08:43;11.40;99.90
3713;DHT22;1872;51.406;6.856;2024-03-02T09:11:10;11.40;99.90
3713;DHT22;1872;51.406;6.856;2024-03-02T09:13:37;11.50;99.90
3713;DHT22;1872;51.406;6.856;2024-03-02T09:16:04;11.60;99.90
3713;DHT22;1872;51.406;6.856;2024-03-02T09:18:30;11.60;99.90
3713;DHT22;1872;51.406;6.856;2024-03-02T09:20:56;11.60;99.90
3713;DHT22;1872;51.406;6.856;2024-03-02T09:23:22;11.70;99.90
3713;DHT22;1872;51.406;6.856;2024-03-02T09:25:48;11.60;99.90
3713;DHT22;1872;51.406;6.856;2024-03-02T09:28:15;11.60;99.90
3713;DHT22;1872;51.406;6.856;2024-03-02T09:30:41;11.50;99.90
3713;DHT22;1872;51.406;6.856;2024-03-02T09:33:07;11.50;99.90
3713;DHT22;1872;51.406;6.856;2024-03-02T09:35:32;11.40;99.90
3713;DHT22;1872;51.406;6.856;2024-03-02T09:37:58;11.40;99.90
3713;DHT22;1872;51.406;6.856;2024-03-02T09:40:24;11.40;99.90
3713;DHT22;1872;51.406;6.856;2024-03-02T09:42:51;11.40;99.90
3713;DHT22;1872;51.406;6.856;2024-03-02T09:45:23;11.40;99.90
3713;DHT22;1872;51.406;6.856;2024-03-02T09:47:49;11.40;99.90
3713;DHT22;1872;51.406;6.856;2024-03-02T09:50:15;11.50;99.90
3713;DHT22;1872;51.406;6.856;2024-03-02T09:52:48;11.50;99.90
3713;DHT22;1872;51.406;6.856;2024-03-02T09:55:15;11.60;99.90
3713;DHT22;1872;51.406;6.856;2024-03-02T09:57:42;11.60;99.90
3713;DHT22;1872;51.406;6.856;2024-03-02T10:00:09;11.60;99.90
3713;DHT22;1872;51.406;6.856;2024-03-02T10:02:43;11.70;99.90
3713;DHT22;1872;51.406;6.856;2024-03-02T10:05:09;11.60;99.90
3713;DHT22;1872;51.406;6.856;2024-03-02T10:07:35;11.50;99.90
3713;DHT22;1872;51.406;6.856;2024-03-02T10:10:21;11.50;99.90
3713;DHT22;1872;51.406;6.856;2024-03-02T10:12:47;11.60;99.90
3713;DHT22;1872;51.406;6.856;2024-03-02T10:15:13;11.60;99.90
3713;DHT22;1872;51.406;6.856;2024-03-02T10:17:38;11.60;99.90
3713;DHT22;1872;51.406;6.856;2024-03-02T10:20:24;11.60;99.90
3713;DHT22;1872;51.406;6.856;2024-03-02T10:22:50;11.70;99.90
3713;DHT22;1872;51.406;6.856;2024-03-02T10:25:32;11.70;99.90
3713;DHT22;1872;51.406;6.856;2024-03-02T10:27:58;11.80;99.90
3713;DHT22;1872;51.406;6.856;2024-03-02T10:30:27;11.90;99.90
3713;DHT22;1872;51.406;6.856;2024-03-02T10:32:56;11.90;99.90
3713;DHT22;1872;51.406;6.856;2024-03-02T10:35:23;12.00;99.90
3713;DHT22;1872;51.406;6.856;2024-03-02T10:37:49;12.00;99.90
3713;DHT22;1872;51.406;6.856;2024-03-02T10:40:16;12.00;99.90
3713;DHT22;1872;51.406;6.856;2024-03-02T10:42:42;11.90;99.90
3713;DHT22;1872;51.406;6.856;2024-03-02T10:45:10;11.90;99.90
3713;DHT22;1872;51.406;6.856;2024-03-02T10:47:37;12.00;99.90
3713;DHT22;1872;51.406;6.856;2024-03-02T10:50:05;12.00;99.90
3713;DHT22;1872;51.406;6.856;2024-03-02T10:52:42;12.00;99.90
3713;DHT22;1872;51.406;6.856;2024-03-02T10:55:09;12.00;99.90
3713;DHT22;1872;51.406;6.856;2024-03-02T10:57:52;12.00;99.90
3713;DHT22;1872;51.406;6.856;2024-03-02T11:00:26;12.00;99.90
3713;DHT22;1872;51.406;6.856;2024-03-02T11:03:05;12.00;99.90
3713;DHT22;1872;51.406;6.856;2024-03-02T11:05:40;12.00;99.90
3713;DHT22;1872;51.406;6.856;2024-03-02T11:08:12;11.90;99.90
3713;DHT22;1872;51.406;6.856;2024-03-02T11:13:12;11.90;99.90
3713;DHT22;1872;51.406;6.856;2024-03-02T11:15:40;11.90;99.90
3713;DHT22;1872;51.406;6.856;2024-03-02T11:18:07;11.90;99.90
3713;DHT22;1872;51.406;6.856;2024-03-02T11:20:38;11.90;99.90
3713;DHT22;1872;51.406;6.856;2024-03-02T11:23:06;11.90;99.90
3713;DHT22;1872;51.406;6.856;2024-03-02T11:25:32;12.00;99.90
3713;DHT22;1872;51.406;6.856;2024-03-02T11:28:03;12.00;99.90
3713;DHT22;1872;51.406;6.856;2024-03-02T11:32:58;12.00;99.90
3713;DHT22;1872;51.406;6.856;2024-03-02T11:35:28;12.10;99.90
3713;DHT22;1872;51.406;6.856;2024-03-02T11:37:54;12.10;99.90
3713;DHT22;1872;51.406;6.856;2024-03-02T11:40:24;12.20;99.90
3713;DHT22;1872;51.406;6.856;2024-03-02T11:42:51;12.20;99.90
3713;DHT22;1872;51.406;6.856;2024-03-02T11:45:17;12.20;99.90
3713;DHT22;1872;51.406;6.856;2024-03-02T11:47:56;12.30;99.90
3713;DHT22;1872;51.406;6.856;2024-03-02T11:50:36;12.30;99.90
3713;DHT22;1872;51.406;6.856;2024-03-02T11:53:06;12.40;99.90
3713;DHT22;1872;51.406;6.856;2024-03-02T11:55:37;12.30;99.90
3713;DHT22;1872;51.406;6.856;2024-03-02T11:58:06;12.40;99.90
3713;DHT22;1872;51.406;6.856;2024-03-02T12:00:33;12.40;99.90
3713;DHT22;1872;51.406;6.856;2024-03-02T12:03:03;12.40;99.90
3713;DHT22;1872;51.406;6.856;2024-03-02T12:05:30;12.40;99.90
3713;DHT22;1872;51.406;6.856;2024-03-02T12:08:00;12.40;99.90
3713;DHT22;1872;51.406;6.856;2024-03-02T12:10:30;12.50;99.90
3713;DHT22;1872;51.406;6.856;2024-03-02T12:13:00;12.50;99.90
3713;DHT22;1872;51.406;6.856;2024-03-02T12:15:31;12.50;99.90
3713;DHT22;1872;51.406;6.856;2024-03-02T12:17:58;12.60;99.90
3713;DHT22;1872;51.406;6.856;2024-03-02T12:20:26;12.60;99.90
3713;DHT22;1872;51.406;6.856;2024-03-02T12:22:53;12.60;99.90
3713;DHT22;1872;51.406;6.856;2024-03-02T12:25:23;12.60;99.90
3713;DHT22;1872;51.406;6.856;2024-03-02T12:27:54;12.70;99.90
3713;DHT22;1872;51.406;6.856;2024-03-02T12:30:20;12.70;99.90
3713;DHT22;1872;51.406;6.856;2024-03-02T12:32:47;12.70;99.90
3713;DHT22;1872;51.406;6.856;2024-03-02T12:35:13;12.70;99.90
3713;DHT22;1872;51.406;6.856;2024-03-02T12:37:46;12.70;99.90
3713;DHT22;1872;51.406;6.856;2024-03-02T12:40:13;12.70;99.90
3713;DHT22;1872;51.406;6.856;2024-03-02T12:42:40;12.80;99.90
3713;DHT22;1872;51.406;6.856;2024-03-02T12:45:08;12.80;99.90
3713;DHT22;1872;51.406;6.856;2024-03-02T12:47:34;12.90;99.90
3713;DHT22;1872;51.406;6.856;2024-03-02T12:50:00;12.90;99.90
3713;DHT22;1872;51.406;6.856;2024-03-02T12:52:26;13.00;99.90
3713;DHT22;1872;51.406;6.856;2024-03-02T12:54:52;13.10;99.90
3713;DHT22;1872;51.406;6.856;2024-03-02T12:57:25;13.10;99.90
3713;DHT22;1872;51.406;6.856;2024-03-02T12:59:52;13.20;99.90
3713;DHT22;1872;51.406;6.856;2024-03-02T13:02:18;13.20;99.90
3713;DHT22;1872;51.406;6.856;2024-03-02T13:04:44;13.30;99.90
3713;DHT22;1872;51.406;6.856;2024-03-02T13:07:11;13.30;99.90
3713;DHT22;1872;51.406;6.856;2024-03-02T13:09:39;13.30;99.90
3713;DHT22;1872;51.406;6.856;2024-03-02T13:12:05;13.30;99.90
3713;DHT22;1872;51.406;6.856;2024-03-02T13:14:35;13.30;99.90
3713;DHT22;1872;51.406;6.856;2024-03-02T13:17:01;13.30;99.90
3713;DHT22;1872;51.406;6.856;2024-03-02T13:19:29;13.30;99.90
3713;DHT22;1872;51.406;6.856;2024-03-02T13:21:56;13.30;99.90
3713;DHT22;1872;51.406;6.856;2024-03-02T13:24:23;13.30;99.90
3713;DHT22;1872;51.406;6.856;2024-03-02T13:26:51;13.30;99.90
3713;DHT22;1872;51.406;6.856;2024-03-02T13:29:21;13.30;99.90
3713;DHT22;1872;51.406;6.856;2024-03-02T13:31:47;13.40;99.90
3713;DHT22;1872;51.406;6.856;2024-03-02T13:34:12;13.40;99.90
3713;DHT22;1872;51.406;6.856;2024-03-02T13:36:38;13.40;99.90
3713;DHT22;1872;51.406;6.856;2024-03-02T13:39:04;13.40;99.90
3713;DHT22;1872;51.406;6.856;2024-03-02T13:41:37;13.50;99.90
3713;DHT22;1872;51.406;6.856;2024-03-02T13:44:03;13.50;99.90
3713;DHT22;1872;51.406;6.856;2024-03-02T13:46:29;13.50;99.90
3713;DHT22;1872;51.406;6.856;2024-03-02T13:48:57;13.50;99.90
3713;DHT22;1872;51.406;6.856;2024-03-02T13:51:23;13.50;99.90
3713;DHT22;1872;51.406;6.856;2024-03-02T13:53:48;13.50;99.90
3713;DHT22;1872;51.406;6.856;2024-03-02T13:56:14;13.50;99.90
3713;DHT22;1872;51.406;6.856;2024-03-02T13:58:39;13.60;99.90
3713;DHT22;1872;51.406;6.856;2024-03-02T14:01:05;13.70;99.90
3713;DHT22;1872;51.406;6.856;2024-03-02T14:03:31;13.70;99.90
3713;DHT22;1872;51.406;6.856;2024-03-02T14:05:57;13.70;99.90
3713;DHT22;1872;51.406;6.856;2024-03-02T14:08:23;13.70;99.90
3713;DHT22;1872;51.406;6.856;2024-03-02T14:10:49;13.70;99.90
3713;DHT22;1872;51.406;6.856;2024-03-02T14:13:15;13.70;99.90
3713;DHT22;1872;51.406;6.856;2024-03-02T14:15:41;13.70;99.90
3713;DHT22;1872;51.406;6.856;2024-03-02T14:18:07;13.70;99.90
3713;DHT22;1872;51.406;6.856;2024-03-02T14:20:37;13.70;99.90
3713;DHT22;1872;51.406;6.856;2024-03-02T14:23:04;13.70;99.90
3713;DHT22;1872;51.406;6.856;2024-03-02T14:25:30;13.60;99.90
3713;DHT22;1872;51.406;6.856;2024-03-02T14:27:59;13.60;99.90
3713;DHT22;1872;51.406;6.856;2024-03-02T14:30:25;13.60;99.90
3713;DHT22;1872;51.406;6.856;2024-03-02T14:32:51;13.70;99.90
3713;DHT22;1872;51.406;6.856;2024-03-02T14:35:17;13.70;99.90
3713;DHT22;1872;51.406;6.856;2024-03-02T14:37:42;13.70;99.90
3713;DHT22;1872;51.406;6.856;2024-03-02T14:40:09;13.70;99.90
3713;DHT22;1872;51.406;6.856;2024-03-02T14:42:35;13.70;99.90
3713;DHT22;1872;51.406;6.856;2024-03-02T14:45:01;13.70;99.90
3713;DHT22;1872;51.406;6.856;2024-03-02T14:47:31;13.70;99.90
3713;DHT22;1872;51.406;6.856;2024-03-02T14:49:58;13.70;99.90
3713;DHT22;1872;51.406;6.856;2024-03-02T14:52:23;13.70;99.90
3713;DHT22;1872;51.406;6.856;2024-03-02T14:54:49;13.60;99.90
3713;DHT22;1872;51.406;6.856;2024-03-02T14:57:15;13.60;99.90
3713;DHT22;1872;51.406;6.856;2024-03-02T14:59:40;13.50;99.90
3713;DHT22;1872;51.406;6.856;2024-03-02T15:02:08;13.50;99.90
3713;DHT22;1872;51.406;6.856;2024-03-02T15:04:34;13.50;99.90
3713;DHT22;1872;51.406;6.856;2024-03-02T15:06:59;13.50;99.90
3713;DHT22;1872;51.406;6.856;2024-03-02T15:09:25;13.50;99.90
3713;DHT22;1872;51.406;6.856;2024-03-02T15:11:51;13.50;99.90
3713;DHT22;1872;51.406;6.856;2024-03-02T15:14:16;13.50;99.90
3713;DHT22;1872;51.406;6.856;2024-03-02T15:16:42;13.50;99.90
3713;DHT22;1872;51.406;6.856;2024-03-02T15:19:08;13.60;99.90
3713;DHT22;1872;51.406;6.856;2024-03-02T15:21:34;13.60;99.90
3713;DHT22;1872;51.406;6.856;2024-03-02T15:23:59;13.70;99.90
3713;DHT22;1872;51.406;6.856;2024-03-02T15:26:25;13.70;99.90
3713;DHT22;1872;51.406;6.856;2024-03-02T15:28:51;13.80;99.90
3713;DHT22;1872;51.406;6.856;2024-03-02T15:31:19;13.80;99.90
3713;DHT22;1872;51.406;6.856;2024-03-02T15:33:44;13.80;99.90
3713;DHT22;1872;51.406;6.856;2024-03-02T15:36:10;13.80;99.90
3713;DHT22;1872;51.406;6.856;2024-03-02T15:38:37;13.80;99.90
3713;DHT22;1872;51.406;6.856;2024-03-02T15:41:04;13.70;99.90
3713;DHT22;1872;51.406;6.856;2024-03-02T15:43:30;13.70;99.90
3713;DHT22;1872;51.406;6.856;2024-03-02T15:45:57;13.70;99.90
3713;DHT22;1872;51.406;6.856;2024-03-02T15:48:22;13.60;99.90
3713;DHT22;1872;51.406;6.856;2024-03-02T15:50:49;13.60;99.90
3713;DHT22;1872;51.406;6.856;2024-03-02T15:53:18;13.60;99.90
3713;DHT22;1872;51.406;6.856;2024-03-02T15:55:43;13.60;99.90
3713;DHT22;1872;51.406;6.856;2024-03-02T15:58:09;13.60;99.90
3713;DHT22;1872;51.406;6.856;2024-03-02T16:00:35;13.60;99.90
3713;DHT22;1872;51.406;6.856;2024-03-02T16:03:01;13.60;99.90
3713;DHT22;1872;51.406;6.856;2024-03-02T16:05:26;13.70;99.90
3713;DHT22;1872;51.406;6.856;2024-03-02T16:07:52;13.70;99.90
3713;DHT22;1872;51.406;6.856;2024-03-02T16:10:18;13.60;99.90
3713;DHT22;1872;51.406;6.856;2024-03-02T16:12:43;13.60;99.90
3713;DHT22;1872;51.406;6.856;2024-03-02T16:15:09;13.70;99.90
3713;DHT22;1872;51.406;6.856;2024-03-02T16:17:35;13.70;99.90
3713;DHT22;1872;51.406;6.856;2024-03-02T16:20:02;13.60;99.90
3713;DHT22;1872;51.406;6.856;2024-03-02T16:22:34;13.60;99.90
3713;DHT22;1872;51.406;6.856;2024-03-02T16:25:00;13.60;99.90
3713;DHT22;1872;51.406;6.856;2024-03-02T16:27:25;13.60;99.90
3713;DHT22;1872;51.406;6.856;2024-03-02T16:29:53;13.50;99.90
3713;DHT22;1872;51.406;6.856;2024-03-02T16:32:23;13.50;99.90
3713;DHT22;1872;51.406;6.856;2024-03-02T16:34:48;13.50;99.90
3713;DHT22;1872;51.406;6.856;2024-03-02T16:37:14;13.50;99.90